Terrace Airport
CYXT : rendu visible

Aérodrome :











RETROUVEZ-NOUS SUR...

 
LOGIN :

S'inscrire | Disclaimer

   EN    FR    IT 

 









Légende :    VFR   VFR Marginal   IFR   IFR Intensif   IFR Très Intensif
Visi : 
Plafond : 
>= 8 km
>= 3000ft
5 à 8 km
1000 à 3000 ft
1500m à 5 km
500 à 1000 ft
800 à 1500m
200 à 500 ft
< 800m
< 200 ft
Symboles :   Orages  Brouillard  Fortes neiges  Fortes précipitations  Vent > 20 kt






- Altitude de l'aérodrome : 713 ft
- Code IATA : YXT


CYXT - Terrace

DERNIER METAR :
  • 261500Z 01012G21KT 10SM FEW005 OVC110 02/00 A2954 RMK SF1AC7 SLP014

METARs EXPIRÉS :
  • 261400Z 36015G23KT 8SM SCT005 OVC110 01/01 A2956 RMK SF3AC5 FG BANK E SLP019
  • 261300Z 01011G16KT 4SM BR SCT004 OVC130 01/01 A2959 RMK SF3AC5 SLP029

TAF TAF CYXT
Valide du 26 à 13h jusqu'au 27 à 01h UTC


261245Z 2613/2701 VRB03KT P6SM SCT005 OVC210
TEMPO 2613/2614 1/2SM FZFG VV002
BECMG 2613/2614 01008KT
FM261400 01012KT P6SM FEW005 BKN070
TEMPO 2614/2616 4SM BR SCT005 OVC070
FM262100 01010KT P6SM SCT020 BKN040
TEMPO 2621/2701 5SM -RASN BR SCT006 BKN020 BKN050
BECMG 2622/2624 17006KT RMK NXT FCST BY 261900Z



MET'MAP, la Météo Aéronautique d'un coup d'oeil ! - Copyright ORBIFLY Décembre 2007 - Disclaimer

ORBIFLY MET'MAP TEAM :

Programmation & Développement : Alexandra Zaïnal
Sur une idée originale de : Baudouin d'Aumeries
Assistance à la programmation : Marc-Olivier Méhu
Soutien technique & logistique : Manuel Goepfert

Contact : metmap@orbifly.com




SOURCES & CREDITS :

   NOAA       Earth
Advisory